Time;durP1;ratioP1;P1;durP2;ratioP2;P2;SDS_P1;SDS_P2;PMS_P1;PMS_P2;Temp;Humidity;BMP_temperature;BMP_pressure;BME280_temperature;BME280_humidity;BME280_pressure;Samples;Min_cycle;Max_cycle;Signal;HPM_P1;HPM_P2
2022/01/01 00:02:22;;;;;;;0.23;0.23;;;;;;;;;;5018586;28;20429;-72
2022/01/01 00:04:48;;;;;;;0.20;0.20;;;;;;;;;;5025145;28;20205;-70
2022/01/01 00:07:16;;;;;;;0.10;0.10;;;;;;;;;;5027527;28;20259;-71
2022/01/01 00:09:43;;;;;;;0.30;0.30;;;;;;;;;;5027144;28;20259;-72
2022/01/01 00:12:10;;;;;;;0.10;0.10;;;;;;;;;;5023173;28;20211;-72
2022/01/01 00:14:36;;;;;;;0.10;0.10;;;;;;;;;;5010173;28;20444;-72
2022/01/01 00:17:03;;;;;;;0.10;0.10;;;;;;;;;;5007504;28;20458;-71
2022/01/01 00:19:31;;;;;;;0.10;0.10;;;;;;;;;;5007380;28;20214;-72
2022/01/01 00:21:57;;;;;;;0.10;0.10;;;;;;;;;;5007274;28;20208;-71
2022/01/01 00:24:24;;;;;;;0.10;0.10;;;;;;;;;;5007514;28;20395;-71
2022/01/01 00:26:51;;;;;;;0.33;0.33;;;;;;;;;;5007868;28;20202;-71
2022/01/01 00:29:17;;;;;;;0.10;0.10;;;;;;;;;;5007460;28;20218;-71
2022/01/01 00:31:43;;;;;;;0.10;0.10;;;;;;;;;;5007070;28;20230;-70
2022/01/01 00:34:09;;;;;;;0.10;0.10;;;;;;;;;;5007268;28;20213;-69
2022/01/01 00:36:36;;;;;;;0.20;0.20;;;;;;;;;;5007071;28;20207;-70
2022/01/01 00:39:02;;;;;;;0.10;0.10;;;;;;;;;;5020974;28;20244;-68
2022/01/01 00:41:30;;;;;;;0.30;0.30;;;;;;;;;;5023884;28;20484;-71
2022/01/01 00:43:56;;;;;;;0.20;0.20;;;;;;;;;;5017167;28;20215;-71
2022/01/01 00:46:22;;;;;;;0.03;0.03;;;;;;;;;;5026410;28;20230;-71
2022/01/01 00:48:53;;;;;;;0.10;0.10;;;;;;;;;;5026484;28;20270;-71
2022/01/01 00:51:19;;;;;;;0.10;0.10;;;;;;;;;;5026095;28;20301;-72
2022/01/01 00:53:45;;;;;;;0.10;0.10;;;;;;;;;;5026640;28;20232;-70
2022/01/01 00:56:11;;;;;;;0.57;0.53;;;;;;;;;;5026439;28;20198;-70
2022/01/01 00:58:39;;;;;;;0.20;0.20;;;;;;;;;;5026595;28;20230;-69
2022/01/01 01:01:05;;;;;;;0.10;0.10;;;;;;;;;;5026445;28;20252;-71
2022/01/01 01:03:32;;;;;;;0.10;0.10;;;;;;;;;;5026508;28;20277;-72
2022/01/01 01:05:59;;;;;;;0.10;0.10;;;;;;;;;;5026343;28;20219;-72
2022/01/01 01:08:26;;;;;;;0.10;0.10;;;;;;;;;;5026399;28;20215;-72
2022/01/01 01:10:52;;;;;;;0.10;0.10;;;;;;;;;;5026280;28;20452;-70
2022/01/01 01:13:20;;;;;;;0.10;0.10;;;;;;;;;;5026271;28;20276;-70
2022/01/01 01:15:47;;;;;;;0.10;0.10;;;;;;;;;;5012320;28;20271;-67
2022/01/01 01:18:14;;;;;;;0.10;0.10;;;;;;;;;;5006550;28;20208;-69
2022/01/01 01:20:40;;;;;;;0.10;0.10;;;;;;;;;;5011628;28;20203;-70
2022/01/01 01:23:06;;;;;;;0.10;0.10;;;;;;;;;;5021203;28;20199;-69
2022/01/01 01:25:39;;;;;;;0.10;0.10;;;;;;;;;;5032875;28;20513;-71
2022/01/01 01:28:07;;;;;;;0.10;0.10;;;;;;;;;;5036382;28;20277;-71
2022/01/01 01:30:34;;;;;;;0.27;0.27;;;;;;;;;;5028150;28;20317;-70
2022/01/01 01:33:01;;;;;;;0.10;0.10;;;;;;;;;;5014627;28;20302;-71
2022/01/01 01:35:28;;;;;;;0.10;0.10;;;;;;;;;;5020600;28;20233;-71
2022/01/01 01:37:54;;;;;;;0.10;0.10;;;;;;;;;;5023901;28;20205;-70
2022/01/01 01:40:21;;;;;;;0.10;0.10;;;;;;;;;;5022532;28;20205;-70
2022/01/01 01:42:47;;;;;;;0.10;0.10;;;;;;;;;;5037616;28;20214;-71
2022/01/01 01:45:17;;;;;;;0.10;0.10;;;;;;;;;;5018475;28;20271;-71
2022/01/01 01:47:43;;;;;;;0.10;0.10;;;;;;;;;;5014409;28;20198;-70
2022/01/01 01:50:12;;;;;;;0.10;0.10;;;;;;;;;;5019668;28;20222;-71
2022/01/01 01:52:39;;;;;;;0.10;0.10;;;;;;;;;;5005918;28;20249;-71
2022/01/01 01:55:07;;;;;;;0.10;0.10;;;;;;;;;;5005881;28;20435;-71
2022/01/01 01:57:35;;;;;;;0.10;0.10;;;;;;;;;;5005579;28;20206;-70
2022/01/01 02:00:01;;;;;;;0.10;0.10;;;;;;;;;;5005815;28;20206;-71
2022/01/01 02:02:27;;;;;;;0.20;0.20;;;;;;;;;;5005309;28;20206;-71
2022/01/01 02:04:53;;;;;;;0.10;0.10;;;;;;;;;;5005748;28;20275;-71
2022/01/01 02:07:21;;;;;;;0.20;0.20;;;;;;;;;;5005611;28;20208;-71
2022/01/01 02:09:47;;;;;;;0.10;0.10;;;;;;;;;;5005441;28;20207;-71
2022/01/01 02:12:13;;;;;;;0.10;0.10;;;;;;;;;;5005798;28;20258;-70
2022/01/01 02:14:55;;;;;;;0.10;0.10;;;;;;;;;;5005103;28;20213;-70
2022/01/01 02:17:21;;;;;;;0.10;0.10;;;;;;;;;;5005276;28;20541;-71
2022/01/01 02:19:49;;;;;;;0.20;0.20;;;;;;;;;;5005325;28;20265;-70
2022/01/01 02:22:17;;;;;;;0.10;0.10;;;;;;;;;;5005323;28;20265;-70
2022/01/01 02:24:43;;;;;;;0.10;0.10;;;;;;;;;;5005229;28;20229;-69
2022/01/01 02:27:09;;;;;;;0.10;0.10;;;;;;;;;;5003955;28;20525;-71
2022/01/01 02:29:37;;;;;;;0.10;0.10;;;;;;;;;;5005199;28;20501;-70
2022/01/01 02:32:04;;;;;;;0.03;0.03;;;;;;;;;;5004667;28;20222;-70
2022/01/01 02:34:30;;;;;;;0.10;0.10;;;;;;;;;;5004664;28;20217;-72
2022/01/01 02:36:56;;;;;;;0.10;0.10;;;;;;;;;;5004678;28;20245;-70
2022/01/01 02:39:24;;;;;;;5.50;5.20;;;;;;;;;;5018144;28;20217;-70
2022/01/01 02:41:53;;;;;;;0.10;0.10;;;;;;;;;;5007843;28;20245;-71
2022/01/01 02:44:20;;;;;;;0.00;0.00;;;;;;;;;;5004651;28;20206;-71
2022/01/01 02:46:47;;;;;;;0.63;0.63;;;;;;;;;;5004928;28;20206;-71
2022/01/01 02:49:13;;;;;;;0.10;0.10;;;;;;;;;;5004922;28;20507;-71
2022/01/01 02:51:39;;;;;;;0.10;0.10;;;;;;;;;;5004300;28;20588;-71
2022/01/01 02:54:05;;;;;;;0.10;0.10;;;;;;;;;;5004513;28;20206;-70
2022/01/01 02:56:33;;;;;;;0.10;0.10;;;;;;;;;;5004358;28;20494;-70
2022/01/01 02:58:59;;;;;;;0.10;0.10;;;;;;;;;;5004487;28;20202;-71
2022/01/01 03:01:25;;;;;;;0.10;0.10;;;;;;;;;;5004600;28;20210;-71
2022/01/01 03:03:52;;;;;;;0.10;0.10;;;;;;;;;;5004552;28;20205;-71
2022/01/01 03:06:20;;;;;;;0.00;0.00;;;;;;;;;;5004505;28;20402;-70
2022/01/01 03:08:47;;;;;;;0.10;0.10;;;;;;;;;;5004573;28;20212;-70
2022/01/01 03:11:14;;;;;;;0.10;0.10;;;;;;;;;;5004499;28;20229;-70
2022/01/01 03:13:41;;;;;;;0.10;0.10;;;;;;;;;;5004526;28;20486;-70
2022/01/01 03:16:07;;;;;;;0.10;0.10;;;;;;;;;;5004411;28;20205;-70
2022/01/01 03:18:34;;;;;;;0.10;0.10;;;;;;;;;;5004105;28;20252;-70
2022/01/01 03:21:00;;;;;;;0.10;0.10;;;;;;;;;;5004020;28;20271;-71
2022/01/01 03:23:26;;;;;;;0.20;0.20;;;;;;;;;;5004118;28;20206;-71
2022/01/01 03:25:52;;;;;;;0.10;0.10;;;;;;;;;;5004116;28;20206;-70
2022/01/01 03:28:18;;;;;;;0.10;0.10;;;;;;;;;;5004175;28;20225;-71
2022/01/01 03:30:46;;;;;;;0.10;0.10;;;;;;;;;;5012745;28;20202;-71
2022/01/01 03:33:12;;;;;;;0.10;0.10;;;;;;;;;;5023819;28;20220;-71
2022/01/01 03:35:39;;;;;;;0.10;0.10;;;;;;;;;;5023401;28;20205;-71
2022/01/01 03:38:05;;;;;;;0.20;0.20;;;;;;;;;;5023207;28;20502;-71
2022/01/01 03:40:31;;;;;;;0.10;0.10;;;;;;;;;;5023694;28;20206;-71
2022/01/01 03:42:58;;;;;;;0.10;0.10;;;;;;;;;;5043296;28;20205;-71
2022/01/01 03:45:24;;;;;;;0.10;0.10;;;;;;;;;;5043407;28;20437;-70
2022/01/01 03:47:52;;;;;;;0.10;0.10;;;;;;;;;;5043009;28;20252;-70
2022/01/01 03:50:18;;;;;;;0.10;0.10;;;;;;;;;;5042776;28;20216;-70
2022/01/01 03:52:45;;;;;;;0.10;0.10;;;;;;;;;;5042877;28;20236;-70
2022/01/01 03:55:11;;;;;;;0.10;0.10;;;;;;;;;;5042950;28;20201;-72
2022/01/01 03:57:38;;;;;;;0.10;0.10;;;;;;;;;;5043270;28;20207;-69
2022/01/01 04:00:05;;;;;;;0.10;0.10;;;;;;;;;;5042974;28;20504;-69
2022/01/01 04:02:32;;;;;;;0.10;0.10;;;;;;;;;;5042793;28;20235;-70
2022/01/01 04:04:59;;;;;;;0.10;0.10;;;;;;;;;;5042890;28;20205;-70
2022/01/01 04:07:26;;;;;;;0.10;0.10;;;;;;;;;;5042851;28;20214;-70
2022/01/01 04:09:52;;;;;;;0.10;0.10;;;;;;;;;;5042865;28;20205;-71
2022/01/01 04:12:18;;;;;;;0.10;0.10;;;;;;;;;;5042858;28;20220;-70
2022/01/01 04:14:45;;;;;;;0.10;0.10;;;;;;;;;;5043094;28;20205;-71
2022/01/01 04:17:11;;;;;;;0.10;0.10;;;;;;;;;;5042737;28;20208;-71
2022/01/01 04:19:39;;;;;;;0.10;0.10;;;;;;;;;;5042228;28;20205;-70
2022/01/01 04:22:07;;;;;;;0.10;0.10;;;;;;;;;;5023027;28;20449;-71
2022/01/01 04:24:34;;;;;;;0.10;0.10;;;;;;;;;;5023244;28;20280;-70
2022/01/01 04:27:00;;;;;;;0.10;0.10;;;;;;;;;;5023286;28;20273;-71
2022/01/01 04:29:26;;;;;;;0.10;0.10;;;;;;;;;;5023237;28;20206;-71
2022/01/01 04:31:52;;;;;;;0.10;0.10;;;;;;;;;;5022823;28;20606;-71
2022/01/01 04:34:19;;;;;;;0.10;0.10;;;;;;;;;;5023207;28;20206;-71
2022/01/01 04:36:50;;;;;;;0.20;0.20;;;;;;;;;;5023197;28;20205;-71
2022/01/01 04:39:17;;;;;;;0.10;0.10;;;;;;;;;;5022958;28;20219;-71
2022/01/01 04:41:44;;;;;;;0.00;0.00;;;;;;;;;;5023115;28;20244;-70
2022/01/01 04:44:10;;;;;;;0.10;0.10;;;;;;;;;;5023077;28;20229;-69
2022/01/01 04:46:36;;;;;;;0.20;0.20;;;;;;;;;;5023077;28;20228;-70
2022/01/01 04:49:03;;;;;;;0.10;0.10;;;;;;;;;;5023083;28;20221;-70
2022/01/01 04:51:29;;;;;;;0.10;0.10;;;;;;;;;;5025576;28;20316;-70
2022/01/01 04:53:59;;;;;;;0.10;0.10;;;;;;;;;;5026372;28;20253;-70
2022/01/01 04:56:29;;;;;;;0.10;0.10;;;;;;;;;;5026571;28;20207;-70
2022/01/01 04:58:55;;;;;;;0.10;0.10;;;;;;;;;;5026557;28;20205;-70
2022/01/01 05:01:21;;;;;;;0.10;0.10;;;;;;;;;;5026172;28;20209;-70
2022/01/01 05:03:48;;;;;;;0.00;0.00;;;;;;;;;;5026025;28;20268;-70
2022/01/01 05:06:14;;;;;;;0.10;0.10;;;;;;;;;;5026243;28;20275;-70
2022/01/01 05:08:40;;;;;;;0.10;0.10;;;;;;;;;;5026455;28;20329;-71
2022/01/01 05:11:07;;;;;;;0.10;0.10;;;;;;;;;;5026045;28;20198;-70
2022/01/01 05:13:34;;;;;;;0.10;0.10;;;;;;;;;;5026097;28;20421;-70
2022/01/01 05:16:00;;;;;;;0.10;0.10;;;;;;;;;;5025962;28;20211;-70
2022/01/01 05:18:27;;;;;;;0.10;0.10;;;;;;;;;;5025891;28;20237;-70
2022/01/01 05:20:53;;;;;;;0.10;0.10;;;;;;;;;;5026160;28;20494;-70
2022/01/01 05:23:20;;;;;;;0.10;0.10;;;;;;;;;;5026167;28;20216;-70
2022/01/01 05:25:46;;;;;;;0.10;0.10;;;;;;;;;;5025985;28;20205;-70
2022/01/01 05:28:12;;;;;;;0.10;0.10;;;;;;;;;;5025767;28;20228;-70
2022/01/01 05:30:39;;;;;;;0.03;0.03;;;;;;;;;;5025938;28;20210;-69
2022/01/01 05:33:06;;;;;;;0.10;0.10;;;;;;;;;;5025698;28;20276;-70
2022/01/01 05:35:32;;;;;;;0.10;0.10;;;;;;;;;;5025964;28;20297;-71
2022/01/01 05:37:58;;;;;;;0.10;0.10;;;;;;;;;;5025893;28;20249;-71
2022/01/01 05:40:24;;;;;;;0.10;0.10;;;;;;;;;;5025886;28;20248;-71
2022/01/01 05:42:51;;;;;;;0.67;0.67;;;;;;;;;;5025352;28;20243;-71
2022/01/01 05:45:17;;;;;;;0.10;0.10;;;;;;;;;;5025844;28;20209;-71
2022/01/01 05:47:44;;;;;;;0.10;0.10;;;;;;;;;;5025803;28;20206;-71
2022/01/01 05:50:11;;;;;;;0.10;0.10;;;;;;;;;;5025487;28;20218;-71
2022/01/01 05:52:37;;;;;;;0.10;0.10;;;;;;;;;;5025732;28;20229;-71
2022/01/01 05:55:03;;;;;;;0.10;0.10;;;;;;;;;;5025336;28;20576;-71
2022/01/01 05:57:30;;;;;;;0.20;0.20;;;;;;;;;;5025192;28;20251;-70
2022/01/01 05:59:56;;;;;;;0.10;0.10;;;;;;;;;;5025450;28;20335;-70
2022/01/01 06:02:22;;;;;;;0.10;0.10;;;;;;;;;;5024630;28;20202;-70
2022/01/01 06:04:50;;;;;;;0.10;0.10;;;;;;;;;;5025050;28;20233;-70
2022/01/01 06:07:16;;;;;;;0.10;0.10;;;;;;;;;;5024873;28;20213;-71
2022/01/01 06:09:42;;;;;;;0.10;0.10;;;;;;;;;;5024994;28;20228;-70
2022/01/01 06:12:08;;;;;;;0.10;0.10;;;;;;;;;;5025206;28;20517;-70
2022/01/01 06:14:35;;;;;;;0.10;0.10;;;;;;;;;;5025114;28;20230;-69
2022/01/01 06:17:01;;;;;;;0.10;0.10;;;;;;;;;;5024810;28;20202;-69
2022/01/01 06:19:27;;;;;;;0.10;0.10;;;;;;;;;;5024707;28;20247;-69
2022/01/01 06:21:55;;;;;;;1.13;0.77;;;;;;;;;;5024802;28;20447;-70
2022/01/01 06:24:21;;;;;;;0.10;0.10;;;;;;;;;;5025035;28;20427;-70
2022/01/01 06:26:47;;;;;;;0.10;0.10;;;;;;;;;;5024979;28;20378;-70
2022/01/01 06:29:13;;;;;;;0.40;0.40;;;;;;;;;;5024812;28;20206;-69
2022/01/01 06:31:40;;;;;;;0.10;0.10;;;;;;;;;;5024798;28;20212;-69
2022/01/01 06:34:06;;;;;;;0.10;0.10;;;;;;;;;;5025176;28;20205;-70
2022/01/01 06:36:32;;;;;;;0.10;0.10;;;;;;;;;;5024491;28;20229;-70
2022/01/01 06:39:00;;;;;;;0.10;0.10;;;;;;;;;;5024461;28;20221;-70
2022/01/01 06:41:26;;;;;;;0.10;0.10;;;;;;;;;;5024613;28;20205;-70
2022/01/01 06:43:52;;;;;;;0.10;0.10;;;;;;;;;;5024314;28;20615;-71
2022/01/01 06:46:19;;;;;;;0.10;0.10;;;;;;;;;;5024559;28;20563;-70
2022/01/01 06:48:45;;;;;;;0.10;0.10;;;;;;;;;;5018274;28;20495;-70
2022/01/01 06:51:11;;;;;;;0.10;0.10;;;;;;;;;;5004407;28;20226;-70
2022/01/01 06:53:37;;;;;;;0.10;0.10;;;;;;;;;;5004755;28;20301;-70
2022/01/01 06:56:06;;;;;;;0.10;0.10;;;;;;;;;;5004726;28;20505;-70
2022/01/01 06:58:33;;;;;;;1.37;1.33;;;;;;;;;;5005129;28;20278;-70
2022/01/01 07:00:59;;;;;;;0.10;0.10;;;;;;;;;;5004335;28;20260;-70
2022/01/01 07:03:25;;;;;;;0.10;0.10;;;;;;;;;;5004702;28;20526;-70
2022/01/01 07:05:51;;;;;;;0.10;0.10;;;;;;;;;;5004589;28;20208;-71
2022/01/01 07:08:18;;;;;;;0.10;0.10;;;;;;;;;;5004487;28;20256;-71
2022/01/01 07:10:45;;;;;;;0.10;0.10;;;;;;;;;;5004203;28;20261;-70
2022/01/01 07:13:13;;;;;;;0.10;0.10;;;;;;;;;;5003661;28;20229;-69
2022/01/01 07:15:39;;;;;;;0.10;0.10;;;;;;;;;;5004028;28;20210;-70
2022/01/01 07:18:06;;;;;;;0.20;0.20;;;;;;;;;;5004170;28;20211;-71
2022/01/01 07:20:32;;;;;;;0.10;0.10;;;;;;;;;;5004168;28;20245;-70
2022/01/01 07:22:58;;;;;;;3.10;3.00;;;;;;;;;;5004285;28;20233;-70
2022/01/01 07:25:24;;;;;;;0.10;0.10;;;;;;;;;;5003699;28;20210;-70
2022/01/01 07:27:50;;;;;;;0.10;0.10;;;;;;;;;;5004175;28;20245;-70
2022/01/01 07:30:18;;;;;;;0.10;0.10;;;;;;;;;;5003887;28;20506;-72
2022/01/01 07:32:45;;;;;;;0.10;0.10;;;;;;;;;;5003981;28;20226;-72
2022/01/01 07:35:12;;;;;;;0.10;0.10;;;;;;;;;;5004112;28;20510;-70
2022/01/01 07:37:38;;;;;;;0.10;0.10;;;;;;;;;;5003694;28;20229;-70
2022/01/01 07:40:06;;;;;;;0.10;0.10;;;;;;;;;;5018479;28;20501;-70
2022/01/01 07:42:32;;;;;;;0.10;0.10;;;;;;;;;;5039716;28;20196;-69
2022/01/01 07:44:59;;;;;;;0.10;0.10;;;;;;;;;;5043306;28;20247;-71
2022/01/01 07:47:27;;;;;;;0.10;0.10;;;;;;;;;;5043046;28;20204;-70
2022/01/01 07:49:53;;;;;;;0.10;0.10;;;;;;;;;;5042828;28;20247;-70
2022/01/01 07:52:19;;;;;;;0.10;0.10;;;;;;;;;;5042942;28;20284;-70
2022/01/01 07:54:45;;;;;;;0.10;0.10;;;;;;;;;;5043005;28;20197;-71
2022/01/01 07:57:12;;;;;;;0.10;0.10;;;;;;;;;;5042877;28;20512;-70
2022/01/01 07:59:38;;;;;;;0.53;0.53;;;;;;;;;;5043169;28;20216;-70
2022/01/01 08:02:04;;;;;;;0.10;0.10;;;;;;;;;;5043206;28;20541;-70
2022/01/01 08:04:32;;;;;;;0.10;0.10;;;;;;;;;;5042840;28;20246;-71
2022/01/01 08:06:58;;;;;;;0.10;0.10;;;;;;;;;;5043212;28;20211;-71
2022/01/01 08:09:24;;;;;;;0.10;0.10;;;;;;;;;;5043176;28;20274;-71
2022/01/01 08:11:51;;;;;;;0.10;0.10;;;;;;;;;;5042786;28;20279;-71
2022/01/01 08:14:17;;;;;;;0.10;0.10;;;;;;;;;;5043005;28;20296;-72
2022/01/01 08:16:55;;;;;;;3.93;3.73;;;;;;;;;;5042961;28;20488;-71
2022/01/01 08:19:21;;;;;;;0.10;0.10;;;;;;;;;;5043061;28;20220;-71
2022/01/01 08:21:49;;;;;;;0.10;0.10;;;;;;;;;;5043088;28;20570;-70
2022/01/01 08:24:15;;;;;;;0.10;0.10;;;;;;;;;;5042901;28;20243;-70
2022/01/01 08:26:44;;;;;;;0.10;0.10;;;;;;;;;;5046550;28;20213;-70
2022/01/01 08:29:10;;;;;;;0.10;0.10;;;;;;;;;;5042749;28;20219;-70
2022/01/01 08:31:37;;;;;;;0.10;0.10;;;;;;;;;;5026802;28;20207;-69
2022/01/01 08:34:03;;;;;;;0.10;0.10;;;;;;;;;;5026954;28;20276;-69
2022/01/01 08:36:29;;;;;;;0.10;0.10;;;;;;;;;;5026683;28;20203;-70
2022/01/01 08:38:57;;;;;;;0.10;0.10;;;;;;;;;;5026906;28;20427;-70
2022/01/01 08:41:23;;;;;;;0.10;0.10;;;;;;;;;;5026907;28;20252;-69
2022/01/01 08:43:49;;;;;;;0.10;0.10;;;;;;;;;;5026849;28;20210;-69
2022/01/01 08:46:15;;;;;;;0.10;0.10;;;;;;;;;;5026828;28;20205;-69
2022/01/01 08:48:42;;;;;;;0.10;0.10;;;;;;;;;;5026486;28;20216;-70
2022/01/01 08:51:12;;;;;;;0.10;0.10;;;;;;;;;;5026429;28;20440;-70
2022/01/01 08:53:38;;;;;;;0.10;0.10;;;;;;;;;;5026710;28;20226;-70
2022/01/01 08:56:07;;;;;;;0.20;0.20;;;;;;;;;;5026627;28;20211;-70
2022/01/01 08:58:34;;;;;;;0.10;0.10;;;;;;;;;;5026512;28;20206;-70
2022/01/01 09:01:00;;;;;;;0.10;0.10;;;;;;;;;;5026516;28;20234;-70
2022/01/01 09:03:26;;;;;;;0.10;0.10;;;;;;;;;;5026502;28;20265;-70
2022/01/01 09:05:52;;;;;;;0.10;0.10;;;;;;;;;;5026348;28;20209;-71
2022/01/01 09:08:19;;;;;;;0.10;0.10;;;;;;;;;;5026125;28;20237;-70
2022/01/01 09:10:45;;;;;;;0.10;0.10;;;;;;;;;;5026397;28;20252;-70
2022/01/01 09:13:12;;;;;;;0.10;0.10;;;;;;;;;;5026242;28;20279;-70
2022/01/01 09:15:39;;;;;;;0.10;0.10;;;;;;;;;;5026193;28;20432;-71
2022/01/01 09:18:05;;;;;;;0.10;0.10;;;;;;;;;;5025957;28;20198;-72
2022/01/01 09:20:31;;;;;;;0.10;0.10;;;;;;;;;;5026048;28;20508;-70
2022/01/01 09:22:57;;;;;;;0.10;0.10;;;;;;;;;;5026068;28;20204;-70
2022/01/01 09:25:24;;;;;;;0.10;0.10;;;;;;;;;;5025795;28;20213;-70
2022/01/01 09:27:50;;;;;;;0.10;0.10;;;;;;;;;;5025783;28;20453;-70
2022/01/01 09:30:18;;;;;;;0.10;0.10;;;;;;;;;;5025737;28;20205;-70
2022/01/01 09:32:44;;;;;;;0.10;0.10;;;;;;;;;;5025560;28;20225;-70
2022/01/01 09:35:11;;;;;;;0.10;0.10;;;;;;;;;;5025908;28;20206;-70
2022/01/01 09:37:37;;;;;;;0.10;0.10;;;;;;;;;;5025281;28;20201;-69
2022/01/01 09:40:04;;;;;;;0.10;0.10;;;;;;;;;;5025560;28;20203;-70
2022/01/01 09:42:30;;;;;;;0.10;0.10;;;;;;;;;;5041651;28;20205;-70
2022/01/01 09:44:57;;;;;;;0.10;0.10;;;;;;;;;;5045251;28;20205;-70
2022/01/01 09:47:26;;;;;;;0.10;0.10;;;;;;;;;;5045186;28;20206;-69
2022/01/01 09:49:52;;;;;;;0.10;0.10;;;;;;;;;;5044930;28;20249;-70
2022/01/01 09:52:19;;;;;;;0.10;0.10;;;;;;;;;;5032127;28;20253;-70
2022/01/01 09:54:46;;;;;;;0.10;0.10;;;;;;;;;;5016500;28;20270;-70
2022/01/01 09:57:12;;;;;;;0.20;0.20;;;;;;;;;;5013784;28;20245;-70
2022/01/01 09:59:38;;;;;;;0.00;0.00;;;;;;;;;;5013690;28;20219;-70
2022/01/01 10:02:04;;;;;;;0.10;0.10;;;;;;;;;;5018872;28;20214;-71
2022/01/01 10:04:40;;;;;;;0.10;0.10;;;;;;;;;;5016019;28;20221;-70
2022/01/01 10:07:06;;;;;;;0.10;0.10;;;;;;;;;;5010921;28;20238;-70
2022/01/01 10:09:33;;;;;;;0.10;0.10;;;;;;;;;;5016333;28;20201;-70
2022/01/01 10:11:59;;;;;;;0.37;0.37;;;;;;;;;;5013689;28;20514;-70
2022/01/01 10:14:33;;;;;;;0.10;0.10;;;;;;;;;;5011342;28;20227;-71
2022/01/01 10:16:59;;;;;;;0.10;0.10;;;;;;;;;;5016748;28;20555;-71
2022/01/01 10:19:29;;;;;;;0.10;0.10;;;;;;;;;;5015989;28;20203;-70
2022/01/01 10:21:58;;;;;;;0.10;0.10;;;;;;;;;;5020061;28;20280;-70
2022/01/01 10:24:40;;;;;;;0.10;0.10;;;;;;;;;;5014707;28;20383;-69
2022/01/01 10:29:56;;;;;;;0.10;0.10;;;;;;;;;;5024741;28;20190;-70
2022/01/01 10:32:23;;;;;;;0.10;0.10;;;;;;;;;;5024800;28;20212;-70
2022/01/01 10:34:49;;;;;;;0.10;0.10;;;;;;;;;;5024620;28;20454;-70
2022/01/01 10:37:17;;;;;;;0.10;0.10;;;;;;;;;;5024705;28;20206;-71
2022/01/01 10:39:48;;;;;;;2.00;1.90;;;;;;;;;;5024299;28;20265;-70
2022/01/01 10:42:14;;;;;;;0.20;0.20;;;;;;;;;;5038582;28;20332;-70
2022/01/01 10:44:41;;;;;;;0.10;0.10;;;;;;;;;;5044409;28;20554;-71
2022/01/01 10:47:16;;;;;;;0.10;0.10;;;;;;;;;;5043776;28;20197;-70
2022/01/01 10:50:04;;;;;;;0.10;0.10;;;;;;;;;;5043936;28;20194;-71
2022/01/01 10:52:33;;;;;;;0.50;0.50;;;;;;;;;;5044310;28;20555;-71
2022/01/01 10:55:00;;;;;;;0.10;0.10;;;;;;;;;;5044078;28;20255;-70
2022/01/01 10:57:28;;;;;;;0.10;0.10;;;;;;;;;;5043835;28;20245;-71
2022/01/01 11:00:08;;;;;;;0.10;0.10;;;;;;;;;;5043763;28;20407;-70
2022/01/01 11:02:35;;;;;;;0.10;0.10;;;;;;;;;;5043898;28;20236;-69
2022/01/01 11:05:03;;;;;;;0.27;0.27;;;;;;;;;;5043778;28;20246;-71
2022/01/01 11:07:29;;;;;;;0.10;0.10;;;;;;;;;;5043712;28;20214;-71
2022/01/01 11:09:58;;;;;;;0.10;0.10;;;;;;;;;;5043975;28;20325;-71
2022/01/01 11:12:24;;;;;;;0.10;0.10;;;;;;;;;;5043589;28;20230;-70
2022/01/01 11:14:52;;;;;;;0.10;0.10;;;;;;;;;;5027010;28;20229;-70
2022/01/01 11:17:19;;;;;;;0.10;0.10;;;;;;;;;;5025922;28;20219;-73
2022/01/01 11:19:46;;;;;;;0.10;0.10;;;;;;;;;;5015487;28;20229;-70
2022/01/01 11:22:12;;;;;;;0.10;0.10;;;;;;;;;;5019287;28;20259;-69
2022/01/01 11:24:39;;;;;;;0.10;0.10;;;;;;;;;;5016316;28;20204;-70
2022/01/01 11:27:07;;;;;;;0.10;0.10;;;;;;;;;;5015951;28;20248;-70
2022/01/01 11:29:35;;;;;;;0.10;0.10;;;;;;;;;;5019731;28;20212;-70
2022/01/01 11:32:01;;;;;;;0.10;0.10;;;;;;;;;;5011258;28;20269;-66
2022/01/01 11:34:30;;;;;;;0.10;0.10;;;;;;;;;;5020338;28;20213;-70
2022/01/01 11:36:56;;;;;;;0.10;0.10;;;;;;;;;;5022207;28;20205;-74
2022/01/01 11:39:25;;;;;;;0.10;0.10;;;;;;;;;;5022076;28;20208;-70
2022/01/01 11:41:52;;;;;;;0.40;0.40;;;;;;;;;;5029883;28;20269;-70
2022/01/01 11:44:34;;;;;;;0.03;0.03;;;;;;;;;;5020833;28;20207;-70
2022/01/01 11:47:03;;;;;;;0.10;0.10;;;;;;;;;;5023351;28;20204;-70
2022/01/01 11:49:30;;;;;;;0.10;0.10;;;;;;;;;;5023067;28;20211;-71
2022/01/01 11:51:57;;;;;;;0.10;0.10;;;;;;;;;;5023018;28;20414;-70
2022/01/01 11:54:27;;;;;;;0.10;0.10;;;;;;;;;;5023256;28;20226;-70
2022/01/01 11:56:56;;;;;;;0.10;0.10;;;;;;;;;;5023419;28;20219;-70
2022/01/01 11:59:22;;;;;;;0.10;0.10;;;;;;;;;;5023283;28;20290;-71
2022/01/01 12:01:51;;;;;;;0.10;0.10;;;;;;;;;;5023279;28;20380;-71
2022/01/01 12:04:23;;;;;;;0.10;0.10;;;;;;;;;;5022986;28;20271;-71
2022/01/01 12:06:52;;;;;;;0.10;0.10;;;;;;;;;;5023317;28;20265;-71
2022/01/01 12:09:18;;;;;;;0.03;0.03;;;;;;;;;;5023489;28;20400;-70
2022/01/01 12:11:50;;;;;;;0.10;0.10;;;;;;;;;;5023053;28;20225;-70
2022/01/01 12:14:20;;;;;;;0.10;0.10;;;;;;;;;;5029735;28;20265;-73
2022/01/01 12:16:52;;;;;;;0.10;0.10;;;;;;;;;;5025027;28;20202;-74
2022/01/01 12:19:20;;;;;;;0.20;0.20;;;;;;;;;;5013035;28;20424;-72
2022/01/01 12:21:47;;;;;;;0.03;0.03;;;;;;;;;;5017479;28;20205;-73
2022/01/01 12:24:18;;;;;;;0.10;0.10;;;;;;;;;;5019975;28;20198;-71
2022/01/01 12:26:50;;;;;;;0.10;0.10;;;;;;;;;;5022811;28;20220;-74
2022/01/01 12:29:22;;;;;;;0.10;0.10;;;;;;;;;;5022077;28;20188;-64
2022/01/01 12:31:56;;;;;;;0.10;0.10;;;;;;;;;;5006341;28;20222;-68
2022/01/01 12:34:23;;;;;;;0.10;0.10;;;;;;;;;;5017667;28;20218;-67
2022/01/01 12:36:51;;;;;;;0.10;0.10;;;;;;;;;;5008249;28;20209;-68
2022/01/01 12:39:17;;;;;;;0.10;0.10;;;;;;;;;;5003381;28;20504;-73
2022/01/01 12:41:44;;;;;;;0.00;0.00;;;;;;;;;;5004849;28;20379;-71
2022/01/01 12:44:16;;;;;;;0.10;0.10;;;;;;;;;;5004262;28;20206;-71
2022/01/01 12:46:45;;;;;;;0.10;0.10;;;;;;;;;;5013840;28;20209;-73
2022/01/01 12:49:13;;;;;;;0.10;0.10;;;;;;;;;;5020653;28;20210;-74
2022/01/01 12:51:39;;;;;;;0.10;0.10;;;;;;;;;;5008803;28;20247;-73
2022/01/01 12:54:06;;;;;;;0.10;0.10;;;;;;;;;;5009028;28;20285;-70
2022/01/01 12:56:33;;;;;;;0.10;0.10;;;;;;;;;;5017681;28;20489;-71
2022/01/01 12:59:00;;;;;;;0.10;0.10;;;;;;;;;;5017286;28;20258;-70
2022/01/01 13:01:27;;;;;;;0.10;0.10;;;;;;;;;;5014422;28;20212;-70
2022/01/01 13:03:54;;;;;;;0.10;0.10;;;;;;;;;;5009542;28;20277;-71
2022/01/01 13:06:22;;;;;;;0.10;0.10;;;;;;;;;;5008299;28;20463;-71
2022/01/01 13:08:48;;;;;;;0.10;0.10;;;;;;;;;;5011896;28;20208;-68
2022/01/01 13:11:15;;;;;;;0.10;0.10;;;;;;;;;;5017670;28;20227;-69
2022/01/01 13:13:41;;;;;;;0.10;0.10;;;;;;;;;;5025730;28;20234;-71
2022/01/01 13:16:07;;;;;;;0.10;0.10;;;;;;;;;;5006279;28;20209;-72
2022/01/01 13:18:34;;;;;;;0.10;0.10;;;;;;;;;;5019907;28;20250;-73
2022/01/01 13:21:02;;;;;;;0.10;0.10;;;;;;;;;;5014464;28;20378;-72
2022/01/01 13:23:30;;;;;;;0.10;0.10;;;;;;;;;;5014636;28;20234;-74
2022/01/01 13:25:57;;;;;;;0.10;0.10;;;;;;;;;;5018671;28;20395;-76
2022/01/01 13:28:23;;;;;;;0.10;0.10;;;;;;;;;;5022568;28;20430;-74
2022/01/01 13:30:49;;;;;;;0.10;0.10;;;;;;;;;;5020063;28;20215;-74
2022/01/01 13:33:16;;;;;;;0.10;0.10;;;;;;;;;;5016707;28;20250;-75
2022/01/01 13:35:48;;;;;;;0.10;0.10;;;;;;;;;;5013143;28;20302;-75
2022/01/01 13:38:15;;;;;;;0.10;0.10;;;;;;;;;;5017264;28;20203;-75
2022/01/01 13:40:44;;;;;;;0.10;0.10;;;;;;;;;;5019829;28;20519;-75
2022/01/01 13:43:11;;;;;;;0.10;0.10;;;;;;;;;;5020132;28;20212;-76
2022/01/01 13:45:37;;;;;;;0.10;0.10;;;;;;;;;;5005449;28;20225;-75
2022/01/01 13:48:04;;;;;;;0.20;0.20;;;;;;;;;;5016695;28;20207;-73
2022/01/01 13:50:37;;;;;;;0.10;0.10;;;;;;;;;;5019766;28;20256;-78
2022/01/01 13:53:06;;;;;;;0.10;0.10;;;;;;;;;;5015281;28;20229;-76
2022/01/01 13:55:33;;;;;;;0.10;0.10;;;;;;;;;;5008930;28;20225;-77
2022/01/01 13:58:02;;;;;;;0.10;0.10;;;;;;;;;;4993939;28;20224;-76
2022/01/01 14:00:28;;;;;;;0.10;0.10;;;;;;;;;;5021240;28;20215;-76
2022/01/01 14:02:55;;;;;;;0.10;0.10;;;;;;;;;;5025472;28;20212;-76
2022/01/01 14:05:22;;;;;;;1.47;1.47;;;;;;;;;;5011591;28;20245;-76
2022/01/01 14:07:49;;;;;;;0.10;0.10;;;;;;;;;;5011744;28;20204;-76
2022/01/01 14:10:17;;;;;;;0.10;0.10;;;;;;;;;;5024784;28;20272;-76
2022/01/01 14:12:44;;;;;;;0.10;0.10;;;;;;;;;;5024712;28;20214;-75
2022/01/01 14:15:13;;;;;;;0.10;0.10;;;;;;;;;;5024745;28;20251;-75
2022/01/01 14:17:48;;;;;;;0.10;0.10;;;;;;;;;;5025129;28;20215;-74
2022/01/01 14:20:21;;;;;;;0.10;0.10;;;;;;;;;;5010795;28;20215;-75
2022/01/01 14:22:47;;;;;;;0.10;0.10;;;;;;;;;;5004388;28;20215;-75
2022/01/01 14:25:14;;;;;;;0.10;0.10;;;;;;;;;;5005302;28;20554;-75
2022/01/01 14:27:40;;;;;;;0.10;0.10;;;;;;;;;;5004892;28;20246;-75
2022/01/01 14:30:07;;;;;;;0.10;0.10;;;;;;;;;;5005020;28;20209;-74
2022/01/01 14:32:35;;;;;;;0.10;0.10;;;;;;;;;;5005254;28;20235;-75
2022/01/01 14:35:03;;;;;;;0.10;0.10;;;;;;;;;;5005076;28;20273;-75
2022/01/01 14:37:29;;;;;;;0.10;0.10;;;;;;;;;;5004877;28;20208;-75
2022/01/01 14:39:56;;;;;;;0.10;0.10;;;;;;;;;;5005144;28;20441;-75
2022/01/01 14:42:23;;;;;;;0.10;0.10;;;;;;;;;;5005159;28;20257;-75
2022/01/01 14:44:49;;;;;;;0.10;0.10;;;;;;;;;;5017462;28;20200;-76
2022/01/01 14:47:25;;;;;;;0.10;0.10;;;;;;;;;;5024629;28;20457;-76